sensor_id;sensor_type;location;lat;lon;timestamp;P1;durP1;ratioP1;P2;durP2;ratioP2
14377;SDS011;7272;53.668;9.578;2023-02-28T00:01:01;5.23;;;4.00;;
14377;SDS011;7272;53.668;9.578;2023-02-28T00:04:05;4.47;;;3.90;;
14377;SDS011;7272;53.668;9.578;2023-02-28T00:07:09;4.63;;;3.93;;
14377;SDS011;7272;53.668;9.578;2023-02-28T00:10:12;4.27;;;3.90;;
14377;SDS011;7272;53.668;9.578;2023-02-28T00:13:19;4.47;;;3.70;;
14377;SDS011;7272;53.668;9.578;2023-02-28T00:16:21;3.97;;;3.57;;
14377;SDS011;7272;53.668;9.578;2023-02-28T00:19:25;4.20;;;3.80;;
14377;SDS011;7272;53.668;9.578;2023-02-28T00:22:27;4.97;;;3.60;;
14377;SDS011;7272;53.668;9.578;2023-02-28T00:25:29;4.67;;;4.13;;
14377;SDS011;7272;53.668;9.578;2023-02-28T00:28:31;3.70;;;3.40;;
14377;SDS011;7272;53.668;9.578;2023-02-28T00:31:33;4.73;;;3.17;;
14377;SDS011;7272;53.668;9.578;2023-02-28T00:34:36;5.13;;;4.00;;
14377;SDS011;7272;53.668;9.578;2023-02-28T00:37:38;4.53;;;4.13;;
14377;SDS011;7272;53.668;9.578;2023-02-28T00:40:40;4.40;;;4.00;;
14377;SDS011;7272;53.668;9.578;2023-02-28T00:43:52;5.10;;;4.30;;
14377;SDS011;7272;53.668;9.578;2023-02-28T00:46:54;4.60;;;4.13;;
14377;SDS011;7272;53.668;9.578;2023-02-28T00:49:59;4.10;;;3.73;;
14377;SDS011;7272;53.668;9.578;2023-02-28T00:53:02;3.77;;;3.47;;
14377;SDS011;7272;53.668;9.578;2023-02-28T00:56:04;3.93;;;3.53;;
14377;SDS011;7272;53.668;9.578;2023-02-28T00:59:06;3.53;;;3.17;;
14377;SDS011;7272;53.668;9.578;2023-02-28T01:02:08;3.97;;;3.67;;
14377;SDS011;7272;53.668;9.578;2023-02-28T01:05:12;4.63;;;3.80;;
14377;SDS011;7272;53.668;9.578;2023-02-28T01:08:14;3.67;;;3.37;;
14377;SDS011;7272;53.668;9.578;2023-02-28T01:11:17;3.90;;;3.07;;
14377;SDS011;7272;53.668;9.578;2023-02-28T01:14:19;4.20;;;3.03;;
14377;SDS011;7272;53.668;9.578;2023-02-28T01:17:21;3.57;;;3.27;;
14377;SDS011;7272;53.668;9.578;2023-02-28T01:20:24;3.50;;;3.20;;
14377;SDS011;7272;53.668;9.578;2023-02-28T01:23:26;3.30;;;2.60;;
14377;SDS011;7272;53.668;9.578;2023-02-28T01:26:28;3.60;;;3.03;;
14377;SDS011;7272;53.668;9.578;2023-02-28T01:29:30;3.43;;;3.13;;
14377;SDS011;7272;53.668;9.578;2023-02-28T01:32:32;3.20;;;2.80;;
14377;SDS011;7272;53.668;9.578;2023-02-28T01:35:36;3.10;;;2.77;;
14377;SDS011;7272;53.668;9.578;2023-02-28T01:38:38;4.73;;;3.00;;
14377;SDS011;7272;53.668;9.578;2023-02-28T01:41:39;2.93;;;2.63;;
14377;SDS011;7272;53.668;9.578;2023-02-28T01:44:58;3.17;;;2.53;;
14377;SDS011;7272;53.668;9.578;2023-02-28T01:48:05;3.40;;;2.90;;
14377;SDS011;7272;53.668;9.578;2023-02-28T01:51:13;3.70;;;2.50;;
14377;SDS011;7272;53.668;9.578;2023-02-28T01:54:20;2.80;;;2.57;;
14377;SDS011;7272;53.668;9.578;2023-02-28T01:57:26;3.03;;;2.83;;
14377;SDS011;7272;53.668;9.578;2023-02-28T02:00:37;3.70;;;2.90;;
14377;SDS011;7272;53.668;9.578;2023-02-28T02:03:41;3.50;;;3.00;;
14377;SDS011;7272;53.668;9.578;2023-02-28T02:06:46;2.63;;;2.43;;
14377;SDS011;7272;53.668;9.578;2023-02-28T02:09:49;3.27;;;2.40;;
14377;SDS011;7272;53.668;9.578;2023-02-28T02:13:13;3.43;;;3.13;;
14377;SDS011;7272;53.668;9.578;2023-02-28T02:16:24;2.73;;;2.50;;
14377;SDS011;7272;53.668;9.578;2023-02-28T02:19:53;4.23;;;2.80;;
14377;SDS011;7272;53.668;9.578;2023-02-28T02:23:27;2.87;;;2.47;;
14377;SDS011;7272;53.668;9.578;2023-02-28T02:26:55;2.70;;;2.50;;
14377;SDS011;7272;53.668;9.578;2023-02-28T02:30:14;3.13;;;2.67;;
14377;SDS011;7272;53.668;9.578;2023-02-28T02:33:46;2.63;;;2.43;;
14377;SDS011;7272;53.668;9.578;2023-02-28T02:37:09;2.57;;;2.40;;
14377;SDS011;7272;53.668;9.578;2023-02-28T02:40:17;3.17;;;2.90;;
14377;SDS011;7272;53.668;9.578;2023-02-28T02:43:22;3.03;;;2.73;;
14377;SDS011;7272;53.668;9.578;2023-02-28T02:46:30;2.80;;;2.50;;
14377;SDS011;7272;53.668;9.578;2023-02-28T02:49:36;3.43;;;2.90;;
14377;SDS011;7272;53.668;9.578;2023-02-28T02:52:42;3.30;;;2.73;;
14377;SDS011;7272;53.668;9.578;2023-02-28T02:55:50;3.33;;;2.53;;
14377;SDS011;7272;53.668;9.578;2023-02-28T02:58:57;3.30;;;2.73;;
14377;SDS011;7272;53.668;9.578;2023-02-28T03:02:03;3.27;;;2.53;;
14377;SDS011;7272;53.668;9.578;2023-02-28T03:05:14;3.23;;;2.40;;
14377;SDS011;7272;53.668;9.578;2023-02-28T03:08:20;2.93;;;2.63;;
14377;SDS011;7272;53.668;9.578;2023-02-28T03:11:22;2.90;;;2.70;;
14377;SDS011;7272;53.668;9.578;2023-02-28T03:14:31;2.93;;;2.60;;
14377;SDS011;7272;53.668;9.578;2023-02-28T03:17:53;3.97;;;2.80;;
14377;SDS011;7272;53.668;9.578;2023-02-28T03:21:06;3.03;;;2.80;;
14377;SDS011;7272;53.668;9.578;2023-02-28T03:24:18;3.90;;;2.60;;
14377;SDS011;7272;53.668;9.578;2023-02-28T03:27:27;2.73;;;2.50;;
14377;SDS011;7272;53.668;9.578;2023-02-28T03:30:33;3.80;;;2.90;;
14377;SDS011;7272;53.668;9.578;2023-02-28T03:33:40;3.13;;;2.57;;
14377;SDS011;7272;53.668;9.578;2023-02-28T03:36:47;3.13;;;2.67;;
14377;SDS011;7272;53.668;9.578;2023-02-28T03:39:55;3.63;;;2.57;;
14377;SDS011;7272;53.668;9.578;2023-02-28T03:43:01;2.43;;;2.33;;
14377;SDS011;7272;53.668;9.578;2023-02-28T03:46:09;2.83;;;2.60;;
14377;SDS011;7272;53.668;9.578;2023-02-28T03:49:16;3.07;;;2.30;;
14377;SDS011;7272;53.668;9.578;2023-02-28T03:52:25;3.70;;;2.80;;
14377;SDS011;7272;53.668;9.578;2023-02-28T03:55:32;3.57;;;2.50;;
14377;SDS011;7272;53.668;9.578;2023-02-28T03:58:40;3.70;;;2.67;;
14377;SDS011;7272;53.668;9.578;2023-02-28T04:01:46;2.60;;;2.40;;
14377;SDS011;7272;53.668;9.578;2023-02-28T04:04:49;2.43;;;2.20;;
14377;SDS011;7272;53.668;9.578;2023-02-28T04:07:53;2.43;;;2.13;;
14377;SDS011;7272;53.668;9.578;2023-02-28T04:10:55;2.20;;;1.87;;
14377;SDS011;7272;53.668;9.578;2023-02-28T04:14:01;2.40;;;2.20;;
14377;SDS011;7272;53.668;9.578;2023-02-28T04:17:04;2.63;;;2.37;;
14377;SDS011;7272;53.668;9.578;2023-02-28T04:20:06;2.30;;;2.10;;
14377;SDS011;7272;53.668;9.578;2023-02-28T04:23:12;2.40;;;2.20;;
14377;SDS011;7272;53.668;9.578;2023-02-28T04:26:13;2.40;;;2.20;;
14377;SDS011;7272;53.668;9.578;2023-02-28T04:29:19;2.67;;;2.47;;
14377;SDS011;7272;53.668;9.578;2023-02-28T04:32:22;2.50;;;2.30;;
14377;SDS011;7272;53.668;9.578;2023-02-28T04:35:24;2.93;;;2.23;;
14377;SDS011;7272;53.668;9.578;2023-02-28T04:38:28;2.03;;;1.83;;
14377;SDS011;7272;53.668;9.578;2023-02-28T04:41:30;2.50;;;2.30;;
14377;SDS011;7272;53.668;9.578;2023-02-28T04:44:32;2.77;;;2.17;;
14377;SDS011;7272;53.668;9.578;2023-02-28T04:47:34;3.47;;;2.60;;
14377;SDS011;7272;53.668;9.578;2023-02-28T04:50:36;2.63;;;2.40;;
14377;SDS011;7272;53.668;9.578;2023-02-28T04:53:40;3.13;;;2.10;;
14377;SDS011;7272;53.668;9.578;2023-02-28T04:56:43;2.47;;;2.20;;
14377;SDS011;7272;53.668;9.578;2023-02-28T04:59:45;2.83;;;2.30;;
14377;SDS011;7272;53.668;9.578;2023-02-28T05:02:46;3.67;;;2.80;;
14377;SDS011;7272;53.668;9.578;2023-02-28T05:05:48;2.50;;;2.30;;
14377;SDS011;7272;53.668;9.578;2023-02-28T05:08:52;2.50;;;2.30;;
14377;SDS011;7272;53.668;9.578;2023-02-28T05:11:55;2.50;;;2.30;;
14377;SDS011;7272;53.668;9.578;2023-02-28T05:14:57;2.70;;;2.30;;
14377;SDS011;7272;53.668;9.578;2023-02-28T05:17:59;3.90;;;2.40;;
14377;SDS011;7272;53.668;9.578;2023-02-28T05:21:00;3.07;;;2.50;;
14377;SDS011;7272;53.668;9.578;2023-02-28T05:24:09;2.43;;;2.10;;
14377;SDS011;7272;53.668;9.578;2023-02-28T05:27:12;2.90;;;2.10;;
14377;SDS011;7272;53.668;9.578;2023-02-28T05:30:14;2.37;;;2.17;;
14377;SDS011;7272;53.668;9.578;2023-02-28T05:33:19;2.70;;;2.50;;
14377;SDS011;7272;53.668;9.578;2023-02-28T05:36:21;2.37;;;2.27;;
14377;SDS011;7272;53.668;9.578;2023-02-28T05:39:24;2.93;;;2.50;;
14377;SDS011;7272;53.668;9.578;2023-02-28T05:42:26;4.33;;;3.47;;
14377;SDS011;7272;53.668;9.578;2023-02-28T05:45:28;3.13;;;2.83;;
14377;SDS011;7272;53.668;9.578;2023-02-28T05:48:34;3.00;;;2.50;;
14377;SDS011;7272;53.668;9.578;2023-02-28T05:51:37;3.37;;;2.50;;
14377;SDS011;7272;53.668;9.578;2023-02-28T05:54:41;3.20;;;2.27;;
14377;SDS011;7272;53.668;9.578;2023-02-28T05:57:43;3.20;;;2.83;;
14377;SDS011;7272;53.668;9.578;2023-02-28T06:00:45;3.47;;;2.43;;
14377;SDS011;7272;53.668;9.578;2023-02-28T06:03:47;2.67;;;2.47;;
14377;SDS011;7272;53.668;9.578;2023-02-28T06:06:49;2.80;;;2.60;;
14377;SDS011;7272;53.668;9.578;2023-02-28T06:09:53;2.63;;;2.43;;
14377;SDS011;7272;53.668;9.578;2023-02-28T06:12:55;2.50;;;2.30;;
14377;SDS011;7272;53.668;9.578;2023-02-28T06:15:57;2.90;;;2.50;;
14377;SDS011;7272;53.668;9.578;2023-02-28T06:19:02;2.27;;;2.07;;
14377;SDS011;7272;53.668;9.578;2023-02-28T06:22:05;2.70;;;2.50;;
14377;SDS011;7272;53.668;9.578;2023-02-28T06:25:09;3.40;;;2.40;;
14377;SDS011;7272;53.668;9.578;2023-02-28T06:28:11;2.87;;;2.53;;
14377;SDS011;7272;53.668;9.578;2023-02-28T06:31:14;3.03;;;2.60;;
14377;SDS011;7272;53.668;9.578;2023-02-28T06:34:18;2.80;;;2.60;;
14377;SDS011;7272;53.668;9.578;2023-02-28T06:37:20;2.67;;;2.47;;
14377;SDS011;7272;53.668;9.578;2023-02-28T06:40:23;2.93;;;2.57;;
14377;SDS011;7272;53.668;9.578;2023-02-28T06:43:27;2.60;;;2.40;;
14377;SDS011;7272;53.668;9.578;2023-02-28T06:46:30;3.37;;;2.47;;
14377;SDS011;7272;53.668;9.578;2023-02-28T06:49:34;2.10;;;2.00;;
14377;SDS011;7272;53.668;9.578;2023-02-28T06:52:36;3.03;;;2.43;;
14377;SDS011;7272;53.668;9.578;2023-02-28T06:55:40;2.27;;;2.00;;
14377;SDS011;7272;53.668;9.578;2023-02-28T06:58:45;2.30;;;2.17;;
14377;SDS011;7272;53.668;9.578;2023-02-28T07:01:47;3.37;;;2.30;;
14377;SDS011;7272;53.668;9.578;2023-02-28T07:04:49;5.50;;;2.70;;
14377;SDS011;7272;53.668;9.578;2023-02-28T07:07:51;2.90;;;2.70;;
14377;SDS011;7272;53.668;9.578;2023-02-28T07:10:55;2.70;;;2.50;;
14377;SDS011;7272;53.668;9.578;2023-02-28T07:13:57;4.10;;;3.00;;
14377;SDS011;7272;53.668;9.578;2023-02-28T07:16:59;3.27;;;2.97;;
14377;SDS011;7272;53.668;9.578;2023-02-28T07:20:01;2.87;;;2.67;;
14377;SDS011;7272;53.668;9.578;2023-02-28T07:23:04;4.17;;;3.70;;
14377;SDS011;7272;53.668;9.578;2023-02-28T07:26:10;3.70;;;3.43;;
14377;SDS011;7272;53.668;9.578;2023-02-28T07:29:21;5.43;;;3.63;;
14377;SDS011;7272;53.668;9.578;2023-02-28T07:32:23;4.30;;;3.90;;
14377;SDS011;7272;53.668;9.578;2023-02-28T07:35:25;3.00;;;2.80;;
14377;SDS011;7272;53.668;9.578;2023-02-28T07:38:27;3.07;;;2.70;;
14377;SDS011;7272;53.668;9.578;2023-02-28T07:41:30;4.97;;;3.30;;
14377;SDS011;7272;53.668;9.578;2023-02-28T07:44:34;3.53;;;2.67;;
14377;SDS011;7272;53.668;9.578;2023-02-28T07:47:41;4.00;;;3.67;;
14377;SDS011;7272;53.668;9.578;2023-02-28T07:50:43;2.97;;;2.70;;
14377;SDS011;7272;53.668;9.578;2023-02-28T07:53:48;3.70;;;3.10;;
14377;SDS011;7272;53.668;9.578;2023-02-28T07:56:54;4.07;;;3.13;;
14377;SDS011;7272;53.668;9.578;2023-02-28T07:59:55;3.40;;;3.10;;
14377;SDS011;7272;53.668;9.578;2023-02-28T08:02:57;3.20;;;2.90;;
14377;SDS011;7272;53.668;9.578;2023-02-28T08:05:59;3.40;;;3.17;;
14377;SDS011;7272;53.668;9.578;2023-02-28T08:09:02;3.67;;;2.57;;
14377;SDS011;7272;53.668;9.578;2023-02-28T08:12:06;2.77;;;2.57;;
14377;SDS011;7272;53.668;9.578;2023-02-28T08:15:08;2.60;;;2.40;;
14377;SDS011;7272;53.668;9.578;2023-02-28T08:18:11;3.87;;;2.50;;
14377;SDS011;7272;53.668;9.578;2023-02-28T08:21:13;3.23;;;2.40;;
14377;SDS011;7272;53.668;9.578;2023-02-28T08:24:15;3.17;;;2.07;;
14377;SDS011;7272;53.668;9.578;2023-02-28T08:27:18;4.30;;;2.57;;
14377;SDS011;7272;53.668;9.578;2023-02-28T08:30:20;2.73;;;2.37;;
14377;SDS011;7272;53.668;9.578;2023-02-28T08:33:22;2.90;;;2.60;;
14377;SDS011;7272;53.668;9.578;2023-02-28T08:36:24;2.40;;;2.20;;
14377;SDS011;7272;53.668;9.578;2023-02-28T08:39:28;2.60;;;2.40;;
14377;SDS011;7272;53.668;9.578;2023-02-28T08:42:32;2.73;;;2.50;;
14377;SDS011;7272;53.668;9.578;2023-02-28T08:45:34;3.57;;;2.77;;
14377;SDS011;7272;53.668;9.578;2023-02-28T08:48:36;3.97;;;3.30;;
14377;SDS011;7272;53.668;9.578;2023-02-28T08:51:38;2.63;;;2.43;;
14377;SDS011;7272;53.668;9.578;2023-02-28T08:54:40;4.20;;;3.00;;
14377;SDS011;7272;53.668;9.578;2023-02-28T08:57:44;2.70;;;2.50;;
14377;SDS011;7272;53.668;9.578;2023-02-28T09:00:46;3.53;;;2.93;;
14377;SDS011;7272;53.668;9.578;2023-02-28T09:03:50;2.80;;;2.50;;
14377;SDS011;7272;53.668;9.578;2023-02-28T09:06:52;3.07;;;2.10;;
14377;SDS011;7272;53.668;9.578;2023-02-28T09:09:54;2.60;;;2.30;;
14377;SDS011;7272;53.668;9.578;2023-02-28T09:12:58;2.57;;;2.20;;
14377;SDS011;7272;53.668;9.578;2023-02-28T09:16:00;1.90;;;1.80;;
14377;SDS011;7272;53.668;9.578;2023-02-28T09:19:03;3.23;;;2.00;;
14377;SDS011;7272;53.668;9.578;2023-02-28T09:22:05;2.20;;;2.00;;
14377;SDS011;7272;53.668;9.578;2023-02-28T09:25:07;2.40;;;1.87;;
14377;SDS011;7272;53.668;9.578;2023-02-28T09:28:11;3.37;;;2.10;;
14377;SDS011;7272;53.668;9.578;2023-02-28T09:31:15;2.37;;;2.17;;
14377;SDS011;7272;53.668;9.578;2023-02-28T09:34:20;2.63;;;2.00;;
14377;SDS011;7272;53.668;9.578;2023-02-28T09:37:22;2.93;;;2.67;;
14377;SDS011;7272;53.668;9.578;2023-02-28T09:40:26;2.30;;;2.00;;
14377;SDS011;7272;53.668;9.578;2023-02-28T09:43:32;2.20;;;1.83;;
14377;SDS011;7272;53.668;9.578;2023-02-28T09:46:37;3.17;;;1.80;;
14377;SDS011;7272;53.668;9.578;2023-02-28T09:49:42;2.07;;;1.67;;
14377;SDS011;7272;53.668;9.578;2023-02-28T09:52:48;1.63;;;1.50;;
14377;SDS011;7272;53.668;9.578;2023-02-28T09:55:53;1.83;;;1.70;;
14377;SDS011;7272;53.668;9.578;2023-02-28T09:59:01;1.93;;;1.47;;
14377;SDS011;7272;53.668;9.578;2023-02-28T10:02:12;2.23;;;1.50;;
14377;SDS011;7272;53.668;9.578;2023-02-28T10:05:26;2.47;;;1.60;;
14377;SDS011;7272;53.668;9.578;2023-02-28T10:08:32;1.40;;;1.30;;
14377;SDS011;7272;53.668;9.578;2023-02-28T10:11:41;3.53;;;1.73;;
14377;SDS011;7272;53.668;9.578;2023-02-28T10:14:47;1.60;;;1.50;;
14377;SDS011;7272;53.668;9.578;2023-02-28T10:17:53;1.27;;;1.17;;
14377;SDS011;7272;53.668;9.578;2023-02-28T10:20:58;1.40;;;1.30;;
14377;SDS011;7272;53.668;9.578;2023-02-28T10:24:03;2.17;;;1.33;;
14377;SDS011;7272;53.668;9.578;2023-02-28T10:27:13;2.97;;;1.50;;
14377;SDS011;7272;53.668;9.578;2023-02-28T10:30:19;2.30;;;1.43;;
14377;SDS011;7272;53.668;9.578;2023-02-28T10:33:22;1.50;;;1.40;;
14377;SDS011;7272;53.668;9.578;2023-02-28T10:36:26;1.80;;;1.53;;
14377;SDS011;7272;53.668;9.578;2023-02-28T10:39:35;1.80;;;1.20;;
14377;SDS011;7272;53.668;9.578;2023-02-28T10:42:39;1.33;;;1.23;;
14377;SDS011;7272;53.668;9.578;2023-02-28T10:45:51;2.23;;;1.43;;
14377;SDS011;7272;53.668;9.578;2023-02-28T10:49:00;1.53;;;1.43;;
14377;SDS011;7272;53.668;9.578;2023-02-28T10:52:06;1.40;;;1.03;;
14377;SDS011;7272;53.668;9.578;2023-02-28T10:55:15;1.30;;;1.20;;
14377;SDS011;7272;53.668;9.578;2023-02-28T10:58:22;1.83;;;1.27;;
14377;SDS011;7272;53.668;9.578;2023-02-28T11:01:35;2.93;;;1.50;;
14377;SDS011;7272;53.668;9.578;2023-02-28T11:04:39;1.80;;;1.57;;
14377;SDS011;7272;53.668;9.578;2023-02-28T11:07:42;1.43;;;1.33;;
14377;SDS011;7272;53.668;9.578;2023-02-28T11:10:56;1.23;;;1.17;;
14377;SDS011;7272;53.668;9.578;2023-02-28T11:14:02;1.70;;;1.37;;
14377;SDS011;7272;53.668;9.578;2023-02-28T11:17:13;1.60;;;1.50;;
14377;SDS011;7272;53.668;9.578;2023-02-28T11:20:21;2.10;;;1.27;;
14377;SDS011;7272;53.668;9.578;2023-02-28T11:23:24;1.77;;;1.27;;
14377;SDS011;7272;53.668;9.578;2023-02-28T11:26:37;1.40;;;1.30;;
14377;SDS011;7272;53.668;9.578;2023-02-28T11:29:42;1.70;;;1.60;;
14377;SDS011;7272;53.668;9.578;2023-02-28T11:32:50;1.30;;;1.20;;
14377;SDS011;7272;53.668;9.578;2023-02-28T11:35:53;2.23;;;1.50;;
14377;SDS011;7272;53.668;9.578;2023-02-28T11:39:07;2.00;;;1.27;;
14377;SDS011;7272;53.668;9.578;2023-02-28T11:45:50;1.70;;;1.53;;
14377;SDS011;7272;53.668;9.578;2023-02-28T11:49:06;2.07;;;1.20;;
14377;SDS011;7272;53.668;9.578;2023-02-28T11:52:25;1.43;;;1.20;;
14377;SDS011;7272;53.668;9.578;2023-02-28T11:55:37;1.73;;;1.10;;
14377;SDS011;7272;53.668;9.578;2023-02-28T11:58:45;1.27;;;1.13;;
14377;SDS011;7272;53.668;9.578;2023-02-28T12:02:00;1.40;;;1.20;;
14377;SDS011;7272;53.668;9.578;2023-02-28T12:05:24;1.20;;;1.10;;
14377;SDS011;7272;53.668;9.578;2023-02-28T12:08:37;1.40;;;1.30;;
14377;SDS011;7272;53.668;9.578;2023-02-28T12:11:48;1.40;;;1.20;;
14377;SDS011;7272;53.668;9.578;2023-02-28T12:15:03;1.57;;;1.30;;
14377;SDS011;7272;53.668;9.578;2023-02-28T12:18:22;1.40;;;1.30;;
14377;SDS011;7272;53.668;9.578;2023-02-28T12:21:39;1.37;;;1.27;;
14377;SDS011;7272;53.668;9.578;2023-02-28T12:25:16;1.53;;;1.37;;
14377;SDS011;7272;53.668;9.578;2023-02-28T12:28:46;1.40;;;1.30;;
14377;SDS011;7272;53.668;9.578;2023-02-28T12:31:52;1.50;;;1.40;;
14377;SDS011;7272;53.668;9.578;2023-02-28T12:34:58;2.03;;;1.30;;
14377;SDS011;7272;53.668;9.578;2023-02-28T12:38:05;0.97;;;0.97;;
14377;SDS011;7272;53.668;9.578;2023-02-28T12:41:15;1.20;;;1.10;;
14377;SDS011;7272;53.668;9.578;2023-02-28T12:44:21;1.50;;;1.30;;
14377;SDS011;7272;53.668;9.578;2023-02-28T12:47:28;1.40;;;1.20;;
14377;SDS011;7272;53.668;9.578;2023-02-28T12:50:30;1.33;;;1.23;;
14377;SDS011;7272;53.668;9.578;2023-02-28T12:53:38;2.07;;;1.40;;
14377;SDS011;7272;53.668;9.578;2023-02-28T12:56:53;2.07;;;1.30;;
14377;SDS011;7272;53.668;9.578;2023-02-28T13:00:00;1.93;;;1.50;;
14377;SDS011;7272;53.668;9.578;2023-02-28T13:03:10;1.47;;;1.17;;
14377;SDS011;7272;53.668;9.578;2023-02-28T13:06:33;1.73;;;1.33;;
14377;SDS011;7272;53.668;9.578;2023-02-28T13:09:52;1.50;;;1.13;;
14377;SDS011;7272;53.668;9.578;2023-02-28T13:12:56;2.07;;;1.47;;
14377;SDS011;7272;53.668;9.578;2023-02-28T13:16:03;1.50;;;1.40;;
14377;SDS011;7272;53.668;9.578;2023-02-28T13:19:10;1.60;;;1.50;;
14377;SDS011;7272;53.668;9.578;2023-02-28T13:22:17;1.47;;;1.37;;
14377;SDS011;7272;53.668;9.578;2023-02-28T13:28:58;1.20;;;1.13;;
14377;SDS011;7272;53.668;9.578;2023-02-28T13:35:43;1.80;;;1.20;;
14377;SDS011;7272;53.668;9.578;2023-02-28T13:38:46;1.53;;;1.37;;
14377;SDS011;7272;53.668;9.578;2023-02-28T13:41:53;1.27;;;1.17;;
14377;SDS011;7272;53.668;9.578;2023-02-28T13:48:23;2.27;;;1.40;;
14377;SDS011;7272;53.668;9.578;2023-02-28T13:51:35;1.43;;;1.20;;
14377;SDS011;7272;53.668;9.578;2023-02-28T13:54:44;2.83;;;1.37;;
14377;SDS011;7272;53.668;9.578;2023-02-28T13:58:32;1.47;;;1.03;;
14377;SDS011;7272;53.668;9.578;2023-02-28T14:01:52;1.63;;;1.27;;
14377;SDS011;7272;53.668;9.578;2023-02-28T14:05:14;1.20;;;1.10;;
14377;SDS011;7272;53.668;9.578;2023-02-28T14:08:18;1.43;;;0.93;;
14377;SDS011;7272;53.668;9.578;2023-02-28T14:11:25;2.17;;;1.50;;
14377;SDS011;7272;53.668;9.578;2023-02-28T14:17:59;2.17;;;1.90;;
14377;SDS011;7272;53.668;9.578;2023-02-28T14:21:09;2.97;;;1.77;;
14377;SDS011;7272;53.668;9.578;2023-02-28T14:24:22;2.33;;;1.47;;
14377;SDS011;7272;53.668;9.578;2023-02-28T14:27:42;2.27;;;1.93;;
14377;SDS011;7272;53.668;9.578;2023-02-28T14:31:01;1.60;;;1.50;;
14377;SDS011;7272;53.668;9.578;2023-02-28T14:34:20;1.95;;;1.85;;
14377;SDS011;7272;53.668;9.578;2023-02-28T14:37:33;1.50;;;1.40;;
14377;SDS011;7272;53.668;9.578;2023-02-28T14:40:39;2.10;;;1.75;;
14377;SDS011;7272;53.668;9.578;2023-02-28T14:43:47;2.40;;;1.60;;
14377;SDS011;7272;53.668;9.578;2023-02-28T14:46:53;2.20;;;1.70;;
14377;SDS011;7272;53.668;9.578;2023-02-28T14:49:58;2.30;;;2.10;;
14377;SDS011;7272;53.668;9.578;2023-02-28T14:53:01;2.30;;;2.10;;
14377;SDS011;7272;53.668;9.578;2023-02-28T14:56:04;2.50;;;1.73;;
14377;SDS011;7272;53.668;9.578;2023-02-28T14:59:21;4.13;;;1.90;;
14377;SDS011;7272;53.668;9.578;2023-02-28T15:02:30;1.80;;;1.60;;
14377;SDS011;7272;53.668;9.578;2023-02-28T15:05:35;3.10;;;2.80;;
14377;SDS011;7272;53.668;9.578;2023-02-28T15:08:38;1.77;;;1.60;;
14377;SDS011;7272;53.668;9.578;2023-02-28T15:11:41;2.70;;;1.67;;
14377;SDS011;7272;53.668;9.578;2023-02-28T15:14:46;1.67;;;1.57;;
14377;SDS011;7272;53.668;9.578;2023-02-28T15:17:51;1.70;;;1.60;;
14377;SDS011;7272;53.668;9.578;2023-02-28T15:20:58;1.40;;;1.20;;
14377;SDS011;7272;53.668;9.578;2023-02-28T15:24:05;1.53;;;1.20;;
14377;SDS011;7272;53.668;9.578;2023-02-28T15:27:12;2.07;;;1.40;;
14377;SDS011;7272;53.668;9.578;2023-02-28T15:30:17;1.70;;;1.40;;
14377;SDS011;7272;53.668;9.578;2023-02-28T15:33:23;2.00;;;1.70;;
14377;SDS011;7272;53.668;9.578;2023-02-28T15:36:28;2.10;;;1.63;;
14377;SDS011;7272;53.668;9.578;2023-02-28T15:39:33;2.20;;;1.98;;
14377;SDS011;7272;53.668;9.578;2023-02-28T15:42:57;1.80;;;1.70;;
14377;SDS011;7272;53.668;9.578;2023-02-28T15:46:01;1.60;;;1.50;;
14377;SDS011;7272;53.668;9.578;2023-02-28T15:49:12;1.67;;;1.50;;
14377;SDS011;7272;53.668;9.578;2023-02-28T15:52:21;2.50;;;1.60;;
14377;SDS011;7272;53.668;9.578;2023-02-28T15:55:28;1.50;;;1.40;;
14377;SDS011;7272;53.668;9.578;2023-02-28T15:58:32;2.00;;;1.80;;
14377;SDS011;7272;53.668;9.578;2023-02-28T16:01:36;1.70;;;1.60;;
14377;SDS011;7272;53.668;9.578;2023-02-28T16:08:01;2.40;;;1.80;;
14377;SDS011;7272;53.668;9.578;2023-02-28T16:11:14;1.93;;;1.80;;
14377;SDS011;7272;53.668;9.578;2023-02-28T16:14:17;4.03;;;1.90;;
14377;SDS011;7272;53.668;9.578;2023-02-28T16:17:24;1.80;;;1.60;;
14377;SDS011;7272;53.668;9.578;2023-02-28T16:20:30;3.03;;;1.90;;
14377;SDS011;7272;53.668;9.578;2023-02-28T16:23:32;1.70;;;1.60;;
14377;SDS011;7272;53.668;9.578;2023-02-28T16:26:34;1.93;;;1.83;;
14377;SDS011;7272;53.668;9.578;2023-02-28T16:29:37;1.60;;;1.50;;
14377;SDS011;7272;53.668;9.578;2023-02-28T16:32:39;2.40;;;2.20;;
14377;SDS011;7272;53.668;9.578;2023-02-28T16:35:42;2.07;;;1.80;;
14377;SDS011;7272;53.668;9.578;2023-02-28T16:38:44;2.77;;;1.77;;
14377;SDS011;7272;53.668;9.578;2023-02-28T16:41:46;1.97;;;1.80;;
14377;SDS011;7272;53.668;9.578;2023-02-28T16:44:50;1.80;;;1.53;;
14377;SDS011;7272;53.668;9.578;2023-02-28T16:47:53;1.70;;;1.60;;
14377;SDS011;7272;53.668;9.578;2023-02-28T16:50:57;2.07;;;1.57;;
14377;SDS011;7272;53.668;9.578;2023-02-28T16:53:59;1.67;;;1.57;;
14377;SDS011;7272;53.668;9.578;2023-02-28T16:57:00;1.67;;;1.57;;
14377;SDS011;7272;53.668;9.578;2023-02-28T17:00:03;1.70;;;1.60;;
14377;SDS011;7272;53.668;9.578;2023-02-28T17:03:09;1.43;;;1.33;;
14377;SDS011;7272;53.668;9.578;2023-02-28T17:06:22;1.70;;;1.60;;
14377;SDS011;7272;53.668;9.578;2023-02-28T17:09:27;1.90;;;1.80;;
14377;SDS011;7272;53.668;9.578;2023-02-28T17:12:29;2.83;;;1.50;;
14377;SDS011;7272;53.668;9.578;2023-02-28T17:15:31;2.13;;;1.77;;
14377;SDS011;7272;53.668;9.578;2023-02-28T17:18:33;2.30;;;2.10;;
14377;SDS011;7272;53.668;9.578;2023-02-28T17:21:36;2.10;;;1.90;;
14377;SDS011;7272;53.668;9.578;2023-02-28T17:24:38;1.90;;;1.80;;
14377;SDS011;7272;53.668;9.578;2023-02-28T17:27:40;1.80;;;1.70;;
14377;SDS011;7272;53.668;9.578;2023-02-28T17:30:42;2.38;;;2.17;;
14377;SDS011;7272;53.668;9.578;2023-02-28T17:33:47;2.00;;;1.80;;
14377;SDS011;7272;53.668;9.578;2023-02-28T17:36:51;2.23;;;1.70;;
14377;SDS011;7272;53.668;9.578;2023-02-28T17:39:53;2.20;;;2.00;;
14377;SDS011;7272;53.668;9.578;2023-02-28T17:42:55;1.97;;;1.83;;
14377;SDS011;7272;53.668;9.578;2023-02-28T17:45:57;1.70;;;1.60;;
14377;SDS011;7272;53.668;9.578;2023-02-28T17:48:59;2.20;;;2.00;;
14377;SDS011;7272;53.668;9.578;2023-02-28T17:52:03;2.03;;;1.93;;
14377;SDS011;7272;53.668;9.578;2023-02-28T17:55:05;2.00;;;1.90;;
14377;SDS011;7272;53.668;9.578;2023-02-28T17:58:08;1.90;;;1.80;;
14377;SDS011;7272;53.668;9.578;2023-02-28T18:01:12;1.80;;;1.70;;
14377;SDS011;7272;53.668;9.578;2023-02-28T18:04:14;2.50;;;2.03;;
14377;SDS011;7272;53.668;9.578;2023-02-28T18:07:18;2.27;;;1.97;;
14377;SDS011;7272;53.668;9.578;2023-02-28T18:10:22;2.10;;;1.90;;
14377;SDS011;7272;53.668;9.578;2023-02-28T18:13:24;2.10;;;2.00;;
14377;SDS011;7272;53.668;9.578;2023-02-28T18:16:27;2.47;;;2.00;;
14377;SDS011;7272;53.668;9.578;2023-02-28T18:19:29;2.10;;;1.80;;
14377;SDS011;7272;53.668;9.578;2023-02-28T18:22:33;2.17;;;2.07;;
14377;SDS011;7272;53.668;9.578;2023-02-28T18:25:36;2.10;;;1.90;;
14377;SDS011;7272;53.668;9.578;2023-02-28T18:28:40;3.20;;;2.03;;
14377;SDS011;7272;53.668;9.578;2023-02-28T18:31:43;1.80;;;1.70;;
14377;SDS011;7272;53.668;9.578;2023-02-28T18:34:46;1.77;;;1.67;;
14377;SDS011;7272;53.668;9.578;2023-02-28T18:37:49;1.93;;;1.83;;
14377;SDS011;7272;53.668;9.578;2023-02-28T18:40:51;2.23;;;1.80;;
14377;SDS011;7272;53.668;9.578;2023-02-28T18:43:54;2.00;;;1.90;;
14377;SDS011;7272;53.668;9.578;2023-02-28T18:46:56;2.37;;;2.17;;
14377;SDS011;7272;53.668;9.578;2023-02-28T18:49:57;2.70;;;2.45;;
14377;SDS011;7272;53.668;9.578;2023-02-28T18:53:01;2.03;;;1.93;;
14377;SDS011;7272;53.668;9.578;2023-02-28T18:56:03;3.30;;;3.00;;
14377;SDS011;7272;53.668;9.578;2023-02-28T18:59:07;2.47;;;2.27;;
14377;SDS011;7272;53.668;9.578;2023-02-28T19:02:10;2.43;;;2.23;;
14377;SDS011;7272;53.668;9.578;2023-02-28T19:05:12;2.77;;;2.57;;
14377;SDS011;7272;53.668;9.578;2023-02-28T19:08:15;2.93;;;2.20;;
14377;SDS011;7272;53.668;9.578;2023-02-28T19:11:17;2.93;;;2.63;;
14377;SDS011;7272;53.668;9.578;2023-02-28T19:14:19;3.30;;;2.70;;
14377;SDS011;7272;53.668;9.578;2023-02-28T19:17:21;3.30;;;3.10;;